sensor_id;sensor_type;location;lat;lon;timestamp;P1;durP1;ratioP1;P2;durP2;ratioP2
6089;SDS011;3073;42.660;23.316;2022-11-24T00:02:02;36.93;;;18.63;;
6089;SDS011;3073;42.660;23.316;2022-11-24T00:04:29;15.93;;;8.60;;
6089;SDS011;3073;42.660;23.316;2022-11-24T00:06:56;20.13;;;9.80;;
6089;SDS011;3073;42.660;23.316;2022-11-24T00:09:23;13.40;;;6.63;;
6089;SDS011;3073;42.660;23.316;2022-11-24T00:11:51;26.13;;;10.37;;
6089;SDS011;3073;42.660;23.316;2022-11-24T00:14:18;14.90;;;7.07;;
6089;SDS011;3073;42.660;23.316;2022-11-24T00:16:45;16.23;;;7.90;;
6089;SDS011;3073;42.660;23.316;2022-11-24T00:19:12;18.70;;;7.70;;
6089;SDS011;3073;42.660;23.316;2022-11-24T00:21:39;16.53;;;7.17;;
6089;SDS011;3073;42.660;23.316;2022-11-24T00:24:06;13.60;;;6.60;;
6089;SDS011;3073;42.660;23.316;2022-11-24T00:26:33;15.47;;;5.93;;
6089;SDS011;3073;42.660;23.316;2022-11-24T00:29:03;10.50;;;5.60;;
6089;SDS011;3073;42.660;23.316;2022-11-24T00:31:32;11.60;;;6.33;;
6089;SDS011;3073;42.660;23.316;2022-11-24T00:34:01;10.47;;;6.23;;
6089;SDS011;3073;42.660;23.316;2022-11-24T00:36:30;10.13;;;5.90;;
6089;SDS011;3073;42.660;23.316;2022-11-24T00:39:00;11.33;;;6.30;;
6089;SDS011;3073;42.660;23.316;2022-11-24T00:41:28;18.83;;;6.97;;
6089;SDS011;3073;42.660;23.316;2022-11-24T00:43:56;11.40;;;7.03;;
6089;SDS011;3073;42.660;23.316;2022-11-24T00:46:25;13.00;;;5.60;;
6089;SDS011;3073;42.660;23.316;2022-11-24T00:48:53;15.00;;;6.20;;
6089;SDS011;3073;42.660;23.316;2022-11-24T00:51:20;9.53;;;5.60;;
6089;SDS011;3073;42.660;23.316;2022-11-24T00:53:48;10.07;;;5.73;;
6089;SDS011;3073;42.660;23.316;2022-11-24T00:56:15;8.63;;;5.50;;
6089;SDS011;3073;42.660;23.316;2022-11-24T00:58:42;7.03;;;4.97;;
6089;SDS011;3073;42.660;23.316;2022-11-24T01:01:10;11.27;;;5.30;;
6089;SDS011;3073;42.660;23.316;2022-11-24T01:03:40;9.60;;;5.13;;
6089;SDS011;3073;42.660;23.316;2022-11-24T01:06:08;9.97;;;5.43;;
6089;SDS011;3073;42.660;23.316;2022-11-24T01:08:37;10.87;;;5.27;;
6089;SDS011;3073;42.660;23.316;2022-11-24T01:11:05;9.63;;;5.33;;
6089;SDS011;3073;42.660;23.316;2022-11-24T01:13:36;10.17;;;5.40;;
6089;SDS011;3073;42.660;23.316;2022-11-24T01:16:04;11.80;;;5.93;;
6089;SDS011;3073;42.660;23.316;2022-11-24T01:18:31;7.87;;;5.40;;
6089;SDS011;3073;42.660;23.316;2022-11-24T01:21:01;7.10;;;4.83;;
6089;SDS011;3073;42.660;23.316;2022-11-24T01:23:29;11.40;;;5.40;;
6089;SDS011;3073;42.660;23.316;2022-11-24T01:25:56;8.70;;;4.67;;
6089;SDS011;3073;42.660;23.316;2022-11-24T01:28:22;14.97;;;5.60;;
6089;SDS011;3073;42.660;23.316;2022-11-24T01:30:55;8.73;;;3.93;;
6089;SDS011;3073;42.660;23.316;2022-11-24T01:33:23;14.30;;;3.97;;
6089;SDS011;3073;42.660;23.316;2022-11-24T01:35:50;5.33;;;3.70;;
6089;SDS011;3073;42.660;23.316;2022-11-24T01:38:18;8.47;;;3.70;;
6089;SDS011;3073;42.660;23.316;2022-11-24T01:40:46;9.30;;;4.77;;
6089;SDS011;3073;42.660;23.316;2022-11-24T01:43:14;6.50;;;4.20;;
6089;SDS011;3073;42.660;23.316;2022-11-24T01:45:42;8.47;;;4.57;;
6089;SDS011;3073;42.660;23.316;2022-11-24T01:48:12;5.87;;;3.70;;
6089;SDS011;3073;42.660;23.316;2022-11-24T01:50:42;10.80;;;4.63;;
6089;SDS011;3073;42.660;23.316;2022-11-24T01:53:10;10.30;;;4.30;;
6089;SDS011;3073;42.660;23.316;2022-11-24T01:55:40;13.60;;;4.33;;
6089;SDS011;3073;42.660;23.316;2022-11-24T01:58:09;6.83;;;3.97;;
6089;SDS011;3073;42.660;23.316;2022-11-24T02:00:40;8.47;;;3.87;;
6089;SDS011;3073;42.660;23.316;2022-11-24T02:03:09;10.40;;;4.17;;
6089;SDS011;3073;42.660;23.316;2022-11-24T02:05:41;7.97;;;4.47;;
6089;SDS011;3073;42.660;23.316;2022-11-24T02:08:13;6.73;;;4.00;;
6089;SDS011;3073;42.660;23.316;2022-11-24T02:10:47;10.23;;;4.60;;
6089;SDS011;3073;42.660;23.316;2022-11-24T02:13:14;8.57;;;4.10;;
6089;SDS011;3073;42.660;23.316;2022-11-24T02:15:41;7.07;;;4.40;;
6089;SDS011;3073;42.660;23.316;2022-11-24T02:18:08;9.70;;;4.87;;
6089;SDS011;3073;42.660;23.316;2022-11-24T02:20:35;11.60;;;4.53;;
6089;SDS011;3073;42.660;23.316;2022-11-24T02:23:04;8.83;;;4.70;;
6089;SDS011;3073;42.660;23.316;2022-11-24T02:25:42;7.57;;;4.50;;
6089;SDS011;3073;42.660;23.316;2022-11-24T02:28:16;10.50;;;4.97;;
6089;SDS011;3073;42.660;23.316;2022-11-24T02:30:45;8.30;;;4.30;;
6089;SDS011;3073;42.660;23.316;2022-11-24T02:33:12;9.83;;;4.63;;
6089;SDS011;3073;42.660;23.316;2022-11-24T02:35:39;6.27;;;4.27;;
6089;SDS011;3073;42.660;23.316;2022-11-24T02:38:08;8.10;;;5.30;;
6089;SDS011;3073;42.660;23.316;2022-11-24T02:40:37;10.40;;;4.60;;
6089;SDS011;3073;42.660;23.316;2022-11-24T02:43:08;10.23;;;4.90;;
6089;SDS011;3073;42.660;23.316;2022-11-24T02:45:40;8.87;;;4.77;;
6089;SDS011;3073;42.660;23.316;2022-11-24T02:48:06;7.83;;;5.20;;
6089;SDS011;3073;42.660;23.316;2022-11-24T02:50:33;8.37;;;4.50;;
6089;SDS011;3073;42.660;23.316;2022-11-24T02:53:00;17.03;;;6.33;;
6089;SDS011;3073;42.660;23.316;2022-11-24T02:55:27;9.57;;;4.87;;
6089;SDS011;3073;42.660;23.316;2022-11-24T02:57:54;10.60;;;4.87;;
6089;SDS011;3073;42.660;23.316;2022-11-24T03:00:21;11.90;;;5.87;;
6089;SDS011;3073;42.660;23.316;2022-11-24T03:02:49;9.40;;;4.87;;
6089;SDS011;3073;42.660;23.316;2022-11-24T03:05:16;10.70;;;5.97;;
6089;SDS011;3073;42.660;23.316;2022-11-24T03:07:43;11.17;;;5.73;;
6089;SDS011;3073;42.660;23.316;2022-11-24T03:10:10;9.50;;;4.70;;
6089;SDS011;3073;42.660;23.316;2022-11-24T03:12:37;11.03;;;6.00;;
6089;SDS011;3073;42.660;23.316;2022-11-24T03:15:04;8.13;;;4.77;;
6089;SDS011;3073;42.660;23.316;2022-11-24T03:17:34;15.50;;;6.43;;
6089;SDS011;3073;42.660;23.316;2022-11-24T03:20:03;10.87;;;5.40;;
6089;SDS011;3073;42.660;23.316;2022-11-24T03:22:30;9.70;;;5.10;;
6089;SDS011;3073;42.660;23.316;2022-11-24T03:24:57;12.03;;;5.87;;
6089;SDS011;3073;42.660;23.316;2022-11-24T03:27:24;12.73;;;4.87;;
6089;SDS011;3073;42.660;23.316;2022-11-24T03:29:51;9.50;;;5.80;;
6089;SDS011;3073;42.660;23.316;2022-11-24T03:32:18;11.67;;;5.40;;
6089;SDS011;3073;42.660;23.316;2022-11-24T03:34:44;7.37;;;5.37;;
6089;SDS011;3073;42.660;23.316;2022-11-24T03:37:13;12.37;;;5.53;;
6089;SDS011;3073;42.660;23.316;2022-11-24T03:39:40;9.57;;;5.63;;
6089;SDS011;3073;42.660;23.316;2022-11-24T03:42:06;9.03;;;5.20;;
6089;SDS011;3073;42.660;23.316;2022-11-24T03:44:33;12.40;;;5.70;;
6089;SDS011;3073;42.660;23.316;2022-11-24T03:47:00;11.43;;;6.00;;
6089;SDS011;3073;42.660;23.316;2022-11-24T03:49:27;12.57;;;6.03;;
6089;SDS011;3073;42.660;23.316;2022-11-24T03:51:54;12.60;;;8.20;;
6089;SDS011;3073;42.660;23.316;2022-11-24T03:54:22;12.57;;;8.00;;
6089;SDS011;3073;42.660;23.316;2022-11-24T03:56:49;13.97;;;8.50;;
6089;SDS011;3073;42.660;23.316;2022-11-24T03:59:17;26.03;;;16.20;;
6089;SDS011;3073;42.660;23.316;2022-11-24T04:01:44;23.87;;;17.07;;
6089;SDS011;3073;42.660;23.316;2022-11-24T04:04:11;29.83;;;16.80;;
6089;SDS011;3073;42.660;23.316;2022-11-24T04:06:38;26.10;;;15.30;;
6089;SDS011;3073;42.660;23.316;2022-11-24T04:09:05;23.67;;;14.90;;
6089;SDS011;3073;42.660;23.316;2022-11-24T04:11:34;16.80;;;9.63;;
6089;SDS011;3073;42.660;23.316;2022-11-24T04:14:19;17.47;;;8.00;;
6089;SDS011;3073;42.660;23.316;2022-11-24T04:16:45;13.93;;;7.47;;
6089;SDS011;3073;42.660;23.316;2022-11-24T04:19:12;12.17;;;6.97;;
6089;SDS011;3073;42.660;23.316;2022-11-24T04:21:39;21.40;;;8.27;;
6089;SDS011;3073;42.660;23.316;2022-11-24T04:24:06;17.90;;;8.40;;
6089;SDS011;3073;42.660;23.316;2022-11-24T04:26:34;19.17;;;10.43;;
6089;SDS011;3073;42.660;23.316;2022-11-24T04:29:01;22.43;;;10.17;;
6089;SDS011;3073;42.660;23.316;2022-11-24T04:31:28;14.33;;;9.60;;
6089;SDS011;3073;42.660;23.316;2022-11-24T04:33:55;22.53;;;11.30;;
6089;SDS011;3073;42.660;23.316;2022-11-24T04:36:22;25.93;;;12.40;;
6089;SDS011;3073;42.660;23.316;2022-11-24T04:38:50;23.27;;;12.47;;
6089;SDS011;3073;42.660;23.316;2022-11-24T04:41:17;20.03;;;12.17;;
6089;SDS011;3073;42.660;23.316;2022-11-24T04:43:48;21.93;;;11.60;;
6089;SDS011;3073;42.660;23.316;2022-11-24T04:46:15;19.63;;;11.17;;
6089;SDS011;3073;42.660;23.316;2022-11-24T04:48:42;22.03;;;12.33;;
6089;SDS011;3073;42.660;23.316;2022-11-24T04:51:10;20.53;;;11.67;;
6089;SDS011;3073;42.660;23.316;2022-11-24T04:53:39;21.87;;;12.10;;
6089;SDS011;3073;42.660;23.316;2022-11-24T04:56:06;17.80;;;11.80;;
6089;SDS011;3073;42.660;23.316;2022-11-24T04:58:35;24.07;;;11.20;;
6089;SDS011;3073;42.660;23.316;2022-11-24T05:01:06;19.77;;;9.70;;
6089;SDS011;3073;42.660;23.316;2022-11-24T05:03:33;15.10;;;10.00;;
6089;SDS011;3073;42.660;23.316;2022-11-24T05:06:00;15.77;;;8.93;;
6089;SDS011;3073;42.660;23.316;2022-11-24T05:08:27;15.33;;;8.90;;
6089;SDS011;3073;42.660;23.316;2022-11-24T05:10:54;15.23;;;8.77;;
6089;SDS011;3073;42.660;23.316;2022-11-24T05:13:21;12.70;;;8.27;;
6089;SDS011;3073;42.660;23.316;2022-11-24T05:15:48;15.03;;;8.63;;
6089;SDS011;3073;42.660;23.316;2022-11-24T05:18:16;17.83;;;10.10;;
6089;SDS011;3073;42.660;23.316;2022-11-24T05:20:43;25.93;;;10.93;;
6089;SDS011;3073;42.660;23.316;2022-11-24T05:23:10;28.93;;;11.77;;
6089;SDS011;3073;42.660;23.316;2022-11-24T05:25:37;31.43;;;12.63;;
6089;SDS011;3073;42.660;23.316;2022-11-24T05:28:05;34.20;;;11.43;;
6089;SDS011;3073;42.660;23.316;2022-11-24T05:30:36;19.43;;;11.33;;
6089;SDS011;3073;42.660;23.316;2022-11-24T05:33:04;20.97;;;10.27;;
6089;SDS011;3073;42.660;23.316;2022-11-24T05:35:34;19.90;;;10.50;;
6089;SDS011;3073;42.660;23.316;2022-11-24T05:38:02;24.90;;;10.63;;
6089;SDS011;3073;42.660;23.316;2022-11-24T05:40:29;23.17;;;9.80;;
6089;SDS011;3073;42.660;23.316;2022-11-24T05:42:56;29.03;;;9.93;;
6089;SDS011;3073;42.660;23.316;2022-11-24T05:45:23;24.90;;;9.83;;
6089;SDS011;3073;42.660;23.316;2022-11-24T05:47:50;24.00;;;10.00;;
6089;SDS011;3073;42.660;23.316;2022-11-24T05:50:18;23.47;;;11.23;;
6089;SDS011;3073;42.660;23.316;2022-11-24T05:52:47;26.87;;;15.70;;
6089;SDS011;3073;42.660;23.316;2022-11-24T05:55:15;34.30;;;12.53;;
6089;SDS011;3073;42.660;23.316;2022-11-24T05:57:43;21.53;;;12.80;;
6089;SDS011;3073;42.660;23.316;2022-11-24T06:00:11;28.10;;;13.83;;
6089;SDS011;3073;42.660;23.316;2022-11-24T06:02:39;25.30;;;14.00;;
6089;SDS011;3073;42.660;23.316;2022-11-24T06:05:06;19.83;;;11.50;;
6089;SDS011;3073;42.660;23.316;2022-11-24T06:07:33;24.47;;;12.10;;
6089;SDS011;3073;42.660;23.316;2022-11-24T06:10:02;21.63;;;11.60;;
6089;SDS011;3073;42.660;23.316;2022-11-24T06:12:30;25.53;;;12.07;;
6089;SDS011;3073;42.660;23.316;2022-11-24T06:14:57;24.07;;;10.20;;
6089;SDS011;3073;42.660;23.316;2022-11-24T06:17:24;26.73;;;10.63;;
6089;SDS011;3073;42.660;23.316;2022-11-24T06:19:50;17.27;;;10.50;;
6089;SDS011;3073;42.660;23.316;2022-11-24T06:22:17;18.23;;;10.30;;
6089;SDS011;3073;42.660;23.316;2022-11-24T06:24:44;19.23;;;10.90;;
6089;SDS011;3073;42.660;23.316;2022-11-24T06:27:12;31.57;;;12.30;;
6089;SDS011;3073;42.660;23.316;2022-11-24T06:29:39;33.93;;;12.13;;
6089;SDS011;3073;42.660;23.316;2022-11-24T06:32:07;32.73;;;10.47;;
6089;SDS011;3073;42.660;23.316;2022-11-24T06:34:35;32.57;;;11.40;;
6089;SDS011;3073;42.660;23.316;2022-11-24T06:37:02;29.50;;;10.27;;
6089;SDS011;3073;42.660;23.316;2022-11-24T06:39:30;34.50;;;13.63;;
6089;SDS011;3073;42.660;23.316;2022-11-24T06:41:57;30.40;;;10.73;;
6089;SDS011;3073;42.660;23.316;2022-11-24T06:44:25;19.40;;;10.53;;
6089;SDS011;3073;42.660;23.316;2022-11-24T06:46:52;16.67;;;10.80;;
6089;SDS011;3073;42.660;23.316;2022-11-24T06:49:19;29.63;;;11.27;;
6089;SDS011;3073;42.660;23.316;2022-11-24T06:51:46;24.70;;;12.03;;
6089;SDS011;3073;42.660;23.316;2022-11-24T06:54:13;23.00;;;11.93;;
6089;SDS011;3073;42.660;23.316;2022-11-24T06:56:41;19.30;;;12.07;;
6089;SDS011;3073;42.660;23.316;2022-11-24T06:59:11;24.37;;;12.10;;
6089;SDS011;3073;42.660;23.316;2022-11-24T07:01:44;18.70;;;12.73;;
6089;SDS011;3073;42.660;23.316;2022-11-24T07:04:11;30.63;;;15.70;;
6089;SDS011;3073;42.660;23.316;2022-11-24T07:06:39;31.37;;;17.13;;
6089;SDS011;3073;42.660;23.316;2022-11-24T07:09:06;54.93;;;20.20;;
6089;SDS011;3073;42.660;23.316;2022-11-24T07:11:34;49.07;;;17.60;;
6089;SDS011;3073;42.660;23.316;2022-11-24T07:14:01;36.57;;;17.90;;
6089;SDS011;3073;42.660;23.316;2022-11-24T07:16:29;33.67;;;17.10;;
6089;SDS011;3073;42.660;23.316;2022-11-24T07:18:58;29.97;;;16.77;;
6089;SDS011;3073;42.660;23.316;2022-11-24T07:21:26;24.67;;;15.30;;
6089;SDS011;3073;42.660;23.316;2022-11-24T07:23:54;26.40;;;12.17;;
6089;SDS011;3073;42.660;23.316;2022-11-24T07:26:22;20.03;;;11.83;;
6089;SDS011;3073;42.660;23.316;2022-11-24T07:28:49;24.07;;;10.00;;
6089;SDS011;3073;42.660;23.316;2022-11-24T07:31:17;16.63;;;9.40;;
6089;SDS011;3073;42.660;23.316;2022-11-24T07:33:46;27.77;;;10.00;;
6089;SDS011;3073;42.660;23.316;2022-11-24T07:36:15;18.63;;;9.90;;
6089;SDS011;3073;42.660;23.316;2022-11-24T07:38:42;21.83;;;10.67;;
6089;SDS011;3073;42.660;23.316;2022-11-24T07:41:10;15.67;;;9.60;;
6089;SDS011;3073;42.660;23.316;2022-11-24T07:43:38;16.20;;;9.13;;
6089;SDS011;3073;42.660;23.316;2022-11-24T07:46:07;26.40;;;11.87;;
6089;SDS011;3073;42.660;23.316;2022-11-24T07:48:35;18.07;;;10.83;;
6089;SDS011;3073;42.660;23.316;2022-11-24T07:51:03;23.93;;;12.93;;
6089;SDS011;3073;42.660;23.316;2022-11-24T07:53:32;25.20;;;12.50;;
6089;SDS011;3073;42.660;23.316;2022-11-24T07:56:01;25.20;;;12.87;;
6089;SDS011;3073;42.660;23.316;2022-11-24T07:58:30;17.03;;;11.10;;
6089;SDS011;3073;42.660;23.316;2022-11-24T08:00:58;18.20;;;11.87;;
6089;SDS011;3073;42.660;23.316;2022-11-24T08:03:25;17.33;;;10.40;;
6089;SDS011;3073;42.660;23.316;2022-11-24T08:05:53;17.30;;;10.53;;
6089;SDS011;3073;42.660;23.316;2022-11-24T08:08:20;19.37;;;11.10;;
6089;SDS011;3073;42.660;23.316;2022-11-24T08:10:48;18.97;;;10.90;;
6089;SDS011;3073;42.660;23.316;2022-11-24T08:13:15;15.03;;;10.13;;
6089;SDS011;3073;42.660;23.316;2022-11-24T08:15:43;19.93;;;11.43;;
6089;SDS011;3073;42.660;23.316;2022-11-24T08:18:10;26.47;;;11.30;;
6089;SDS011;3073;42.660;23.316;2022-11-24T08:20:37;15.53;;;10.43;;
6089;SDS011;3073;42.660;23.316;2022-11-24T08:23:04;12.70;;;9.27;;
6089;SDS011;3073;42.660;23.316;2022-11-24T08:25:31;17.00;;;10.20;;
6089;SDS011;3073;42.660;23.316;2022-11-24T08:28:00;15.10;;;9.90;;
6089;SDS011;3073;42.660;23.316;2022-11-24T08:30:29;13.80;;;10.23;;
6089;SDS011;3073;42.660;23.316;2022-11-24T08:32:57;20.70;;;10.57;;
6089;SDS011;3073;42.660;23.316;2022-11-24T08:35:24;15.77;;;10.30;;
6089;SDS011;3073;42.660;23.316;2022-11-24T08:37:51;19.60;;;10.17;;
6089;SDS011;3073;42.660;23.316;2022-11-24T08:40:17;14.70;;;9.47;;
6089;SDS011;3073;42.660;23.316;2022-11-24T08:42:44;15.13;;;9.17;;
6089;SDS011;3073;42.660;23.316;2022-11-24T08:45:12;13.37;;;8.30;;
6089;SDS011;3073;42.660;23.316;2022-11-24T08:47:39;14.03;;;9.10;;
6089;SDS011;3073;42.660;23.316;2022-11-24T08:50:06;13.50;;;8.33;;
6089;SDS011;3073;42.660;23.316;2022-11-24T08:52:34;15.93;;;8.10;;
6089;SDS011;3073;42.660;23.316;2022-11-24T08:55:01;11.97;;;6.93;;
6089;SDS011;3073;42.660;23.316;2022-11-24T08:57:28;10.53;;;7.40;;
6089;SDS011;3073;42.660;23.316;2022-11-24T08:59:55;13.73;;;6.13;;
6089;SDS011;3073;42.660;23.316;2022-11-24T09:02:31;11.57;;;7.10;;
6089;SDS011;3073;42.660;23.316;2022-11-24T09:05:01;7.23;;;5.20;;
6089;SDS011;3073;42.660;23.316;2022-11-24T09:07:29;14.80;;;6.30;;
6089;SDS011;3073;42.660;23.316;2022-11-24T09:09:57;12.00;;;6.60;;
6089;SDS011;3073;42.660;23.316;2022-11-24T09:12:24;10.77;;;6.97;;
6089;SDS011;3073;42.660;23.316;2022-11-24T09:14:51;8.93;;;6.33;;
6089;SDS011;3073;42.660;23.316;2022-11-24T09:17:19;10.40;;;6.20;;
6089;SDS011;3073;42.660;23.316;2022-11-24T09:19:54;7.90;;;5.20;;
6089;SDS011;3073;42.660;23.316;2022-11-24T09:22:21;7.63;;;5.53;;
6089;SDS011;3073;42.660;23.316;2022-11-24T09:24:48;8.83;;;5.03;;
6089;SDS011;3073;42.660;23.316;2022-11-24T09:27:22;6.90;;;4.10;;
6089;SDS011;3073;42.660;23.316;2022-11-24T09:29:50;9.50;;;4.73;;
6089;SDS011;3073;42.660;23.316;2022-11-24T09:32:17;3.73;;;3.00;;
6089;SDS011;3073;42.660;23.316;2022-11-24T09:34:45;6.87;;;3.40;;
6089;SDS011;3073;42.660;23.316;2022-11-24T09:37:17;5.20;;;3.00;;
6089;SDS011;3073;42.660;23.316;2022-11-24T09:39:44;3.47;;;2.60;;
6089;SDS011;3073;42.660;23.316;2022-11-24T09:42:13;5.20;;;2.67;;
6089;SDS011;3073;42.660;23.316;2022-11-24T09:45:05;12.10;;;4.30;;
6089;SDS011;3073;42.660;23.316;2022-11-24T09:47:51;3.10;;;2.10;;
6089;SDS011;3073;42.660;23.316;2022-11-24T09:50:23;2.70;;;1.90;;
6089;SDS011;3073;42.660;23.316;2022-11-24T09:52:54;5.40;;;1.80;;
6089;SDS011;3073;42.660;23.316;2022-11-24T09:55:29;3.50;;;1.90;;
6089;SDS011;3073;42.660;23.316;2022-11-24T09:58:02;1.83;;;1.70;;
6089;SDS011;3073;42.660;23.316;2022-11-24T10:00:36;1.90;;;1.70;;
6089;SDS011;3073;42.660;23.316;2022-11-24T10:03:04;3.83;;;1.70;;
6089;SDS011;3073;42.660;23.316;2022-11-24T10:05:33;1.50;;;1.40;;
6089;SDS011;3073;42.660;23.316;2022-11-24T10:08:10;2.30;;;1.70;;
6089;SDS011;3073;42.660;23.316;2022-11-24T10:10:53;2.40;;;1.70;;
6089;SDS011;3073;42.660;23.316;2022-11-24T10:13:35;2.07;;;1.87;;
6089;SDS011;3073;42.660;23.316;2022-11-24T10:16:17;5.20;;;1.77;;
6089;SDS011;3073;42.660;23.316;2022-11-24T10:19:00;2.13;;;1.50;;
6089;SDS011;3073;42.660;23.316;2022-11-24T10:21:47;2.87;;;2.60;;
6089;SDS011;3073;42.660;23.316;2022-11-24T10:27:18;6.03;;;2.80;;
6089;SDS011;3073;42.660;23.316;2022-11-24T10:29:51;2.87;;;2.57;;
6089;SDS011;3073;42.660;23.316;2022-11-24T10:32:20;5.73;;;2.30;;
6089;SDS011;3073;42.660;23.316;2022-11-24T10:34:50;2.93;;;2.27;;
6089;SDS011;3073;42.660;23.316;2022-11-24T10:37:19;2.00;;;1.90;;
6089;SDS011;3073;42.660;23.316;2022-11-24T10:39:55;4.30;;;2.30;;
6089;SDS011;3073;42.660;23.316;2022-11-24T10:42:30;2.87;;;2.30;;
6089;SDS011;3073;42.660;23.316;2022-11-24T10:45:01;2.57;;;2.10;;
6089;SDS011;3073;42.660;23.316;2022-11-24T10:47:35;2.27;;;2.07;;
6089;SDS011;3073;42.660;23.316;2022-11-24T10:50:03;2.73;;;2.03;;
6089;SDS011;3073;42.660;23.316;2022-11-24T10:52:39;6.40;;;2.00;;
6089;SDS011;3073;42.660;23.316;2022-11-24T10:55:11;2.50;;;2.27;;
6089;SDS011;3073;42.660;23.316;2022-11-24T10:57:38;3.30;;;2.50;;
6089;SDS011;3073;42.660;23.316;2022-11-24T11:00:28;3.03;;;2.73;;
6089;SDS011;3073;42.660;23.316;2022-11-24T11:03:09;3.00;;;2.50;;
6089;SDS011;3073;42.660;23.316;2022-11-24T11:05:40;4.23;;;2.97;;
6089;SDS011;3073;42.660;23.316;2022-11-24T11:08:19;4.13;;;3.10;;
6089;SDS011;3073;42.660;23.316;2022-11-24T11:10:50;4.90;;;3.43;;
6089;SDS011;3073;42.660;23.316;2022-11-24T11:13:32;10.13;;;3.77;;
6089;SDS011;3073;42.660;23.316;2022-11-24T11:15:59;3.80;;;3.13;;
6089;SDS011;3073;42.660;23.316;2022-11-24T11:18:44;4.00;;;3.30;;
6089;SDS011;3073;42.660;23.316;2022-11-24T11:21:22;4.37;;;3.13;;
6089;SDS011;3073;42.660;23.316;2022-11-24T11:23:54;4.33;;;3.10;;
6089;SDS011;3073;42.660;23.316;2022-11-24T11:26:29;9.23;;;4.10;;
6089;SDS011;3073;42.660;23.316;2022-11-24T11:28:59;5.30;;;3.70;;
6089;SDS011;3073;42.660;23.316;2022-11-24T11:31:29;4.87;;;4.10;;
6089;SDS011;3073;42.660;23.316;2022-11-24T11:33:59;8.00;;;4.60;;
6089;SDS011;3073;42.660;23.316;2022-11-24T11:36:28;5.40;;;4.10;;
6089;SDS011;3073;42.660;23.316;2022-11-24T11:38:57;7.40;;;4.50;;
6089;SDS011;3073;42.660;23.316;2022-11-24T11:41:27;5.00;;;3.97;;
6089;SDS011;3073;42.660;23.316;2022-11-24T11:44:10;6.87;;;3.70;;
6089;SDS011;3073;42.660;23.316;2022-11-24T11:46:51;3.93;;;3.40;;
6089;SDS011;3073;42.660;23.316;2022-11-24T11:49:20;5.60;;;4.20;;
6089;SDS011;3073;42.660;23.316;2022-11-24T11:51:52;4.93;;;3.93;;
6089;SDS011;3073;42.660;23.316;2022-11-24T11:54:34;6.47;;;4.30;;
6089;SDS011;3073;42.660;23.316;2022-11-24T11:57:24;6.67;;;4.20;;
6089;SDS011;3073;42.660;23.316;2022-11-24T12:00:04;7.60;;;4.40;;
6089;SDS011;3073;42.660;23.316;2022-11-24T12:02:51;5.43;;;4.10;;
6089;SDS011;3073;42.660;23.316;2022-11-24T12:05:33;5.50;;;3.87;;
6089;SDS011;3073;42.660;23.316;2022-11-24T12:08:11;5.20;;;3.73;;
6089;SDS011;3073;42.660;23.316;2022-11-24T12:10:49;3.47;;;3.17;;
6089;SDS011;3073;42.660;23.316;2022-11-24T12:13:31;7.97;;;3.73;;
6089;SDS011;3073;42.660;23.316;2022-11-24T12:16:12;4.43;;;3.67;;
6089;SDS011;3073;42.660;23.316;2022-11-24T12:18:53;6.10;;;4.87;;
6089;SDS011;3073;42.660;23.316;2022-11-24T12:21:33;7.33;;;4.70;;
6089;SDS011;3073;42.660;23.316;2022-11-24T12:24:09;4.30;;;3.03;;
6089;SDS011;3073;42.660;23.316;2022-11-24T12:26:45;5.57;;;3.73;;
6089;SDS011;3073;42.660;23.316;2022-11-24T12:29:24;4.40;;;3.70;;
6089;SDS011;3073;42.660;23.316;2022-11-24T12:32:14;5.70;;;4.20;;
6089;SDS011;3073;42.660;23.316;2022-11-24T12:34:54;4.17;;;3.47;;
6089;SDS011;3073;42.660;23.316;2022-11-24T12:37:35;5.47;;;3.50;;
6089;SDS011;3073;42.660;23.316;2022-11-24T12:40:12;4.53;;;3.50;;
6089;SDS011;3073;42.660;23.316;2022-11-24T12:42:44;4.80;;;2.83;;
6089;SDS011;3073;42.660;23.316;2022-11-24T12:45:24;4.47;;;3.57;;
6089;SDS011;3073;42.660;23.316;2022-11-24T12:51:10;4.27;;;3.00;;
6089;SDS011;3073;42.660;23.316;2022-11-24T12:53:43;9.20;;;4.97;;
6089;SDS011;3073;42.660;23.316;2022-11-24T12:56:12;5.00;;;4.27;;
6089;SDS011;3073;42.660;23.316;2022-11-24T12:58:42;3.97;;;3.43;;
6089;SDS011;3073;42.660;23.316;2022-11-24T13:01:21;6.57;;;3.60;;
6089;SDS011;3073;42.660;23.316;2022-11-24T13:03:59;6.43;;;3.43;;
6089;SDS011;3073;42.660;23.316;2022-11-24T13:06:34;4.00;;;3.23;;
6089;SDS011;3073;42.660;23.316;2022-11-24T13:09:10;5.07;;;4.13;;
6089;SDS011;3073;42.660;23.316;2022-11-24T13:11:38;4.30;;;3.30;;
6089;SDS011;3073;42.660;23.316;2022-11-24T13:14:11;4.67;;;3.63;;
6089;SDS011;3073;42.660;23.316;2022-11-24T13:16:53;4.00;;;3.10;;
6089;SDS011;3073;42.660;23.316;2022-11-24T13:19:50;5.10;;;3.20;;
6089;SDS011;3073;42.660;23.316;2022-11-24T13:22:22;4.67;;;3.60;;
6089;SDS011;3073;42.660;23.316;2022-11-24T13:25:02;5.50;;;3.30;;
6089;SDS011;3073;42.660;23.316;2022-11-24T13:27:42;4.93;;;3.63;;
6089;SDS011;3073;42.660;23.316;2022-11-24T13:33:26;3.70;;;2.93;;
6089;SDS011;3073;42.660;23.316;2022-11-24T13:38:59;5.30;;;3.97;;
6089;SDS011;3073;42.660;23.316;2022-11-24T13:44:42;3.87;;;3.30;;
6089;SDS011;3073;42.660;23.316;2022-11-24T13:53:11;5.20;;;3.50;;
6089;SDS011;3073;42.660;23.316;2022-11-24T13:55:51;5.57;;;4.07;;
6089;SDS011;3073;42.660;23.316;2022-11-24T13:58:28;5.63;;;3.70;;
6089;SDS011;3073;42.660;23.316;2022-11-24T14:01:04;6.10;;;4.13;;
6089;SDS011;3073;42.660;23.316;2022-11-24T14:03:40;8.33;;;4.80;;
6089;SDS011;3073;42.660;23.316;2022-11-24T14:06:28;8.57;;;4.77;;
6089;SDS011;3073;42.660;23.316;2022-11-24T14:08:58;8.50;;;4.67;;
6089;SDS011;3073;42.660;23.316;2022-11-24T14:11:29;9.13;;;5.40;;
6089;SDS011;3073;42.660;23.316;2022-11-24T14:13:56;7.60;;;4.60;;
6089;SDS011;3073;42.660;23.316;2022-11-24T14:16:23;7.70;;;4.40;;
6089;SDS011;3073;42.660;23.316;2022-11-24T14:18:52;8.43;;;4.03;;
6089;SDS011;3073;42.660;23.316;2022-11-24T14:21:21;5.13;;;3.50;;
6089;SDS011;3073;42.660;23.316;2022-11-24T14:23:53;5.37;;;3.50;;
6089;SDS011;3073;42.660;23.316;2022-11-24T14:26:24;7.43;;;3.90;;
6089;SDS011;3073;42.660;23.316;2022-11-24T14:29:01;6.43;;;3.57;;
6089;SDS011;3073;42.660;23.316;2022-11-24T14:31:30;6.33;;;3.90;;
6089;SDS011;3073;42.660;23.316;2022-11-24T14:34:14;6.27;;;3.53;;
6089;SDS011;3073;42.660;23.316;2022-11-24T14:36:43;9.27;;;4.80;;
6089;SDS011;3073;42.660;23.316;2022-11-24T14:39:10;7.37;;;3.10;;
6089;SDS011;3073;42.660;23.316;2022-11-24T14:41:41;4.63;;;2.70;;
6089;SDS011;3073;42.660;23.316;2022-11-24T14:44:15;3.83;;;2.60;;
6089;SDS011;3073;42.660;23.316;2022-11-24T14:46:44;3.60;;;2.60;;
6089;SDS011;3073;42.660;23.316;2022-11-24T14:49:16;4.47;;;2.93;;
6089;SDS011;3073;42.660;23.316;2022-11-24T14:51:53;4.23;;;3.30;;
6089;SDS011;3073;42.660;23.316;2022-11-24T14:54:22;3.53;;;2.60;;
6089;SDS011;3073;42.660;23.316;2022-11-24T14:56:58;4.20;;;3.30;;
6089;SDS011;3073;42.660;23.316;2022-11-24T14:59:28;14.83;;;3.50;;
6089;SDS011;3073;42.660;23.316;2022-11-24T15:01:59;7.53;;;4.37;;
6089;SDS011;3073;42.660;23.316;2022-11-24T15:04:26;4.33;;;3.20;;
6089;SDS011;3073;42.660;23.316;2022-11-24T15:07:03;4.83;;;3.20;;
6089;SDS011;3073;42.660;23.316;2022-11-24T15:09:40;5.87;;;3.93;;
6089;SDS011;3073;42.660;23.316;2022-11-24T15:12:20;6.10;;;4.33;;
6089;SDS011;3073;42.660;23.316;2022-11-24T15:14:53;5.07;;;3.60;;
6089;SDS011;3073;42.660;23.316;2022-11-24T15:17:24;5.00;;;2.90;;
6089;SDS011;3073;42.660;23.316;2022-11-24T15:19:53;4.03;;;3.13;;
6089;SDS011;3073;42.660;23.316;2022-11-24T15:22:33;5.27;;;2.90;;
6089;SDS011;3073;42.660;23.316;2022-11-24T15:25:02;10.13;;;3.53;;
6089;SDS011;3073;42.660;23.316;2022-11-24T15:27:50;6.17;;;3.50;;
6089;SDS011;3073;42.660;23.316;2022-11-24T15:30:18;6.43;;;2.90;;
6089;SDS011;3073;42.660;23.316;2022-11-24T15:32:49;6.00;;;3.60;;